»·PEaware :: N132KT U12-06U

N132KT :: U12-06U

FLIGHT INFORMATION

Flight Status: Arrived
Operator: Privately registered:
United States
More flights under this callsign
Pilot: Keith S. (1)
Aircraft: BEECH AIRCRAFT BARON
(BE58)
More flights by this aircraft type
Origin: U12 Stanford
United States
Destination: 06U Jackpot/Hayden
United States
More flights between these airports :: More routes between these airports
Route:
File this flight plan on PilotEdge
Remarks:
Altitude:
(Current/Filed)
8,500ft
Speed:
(Current/Filed)
165kts
Departed: 25-Apr-19 05:12 AM
Arrived: 25-Apr-19 06:19 AM
Distance/Time
Traveled:
176nm/1:07
Distance/Time
To Go:
Arrived

Flight Plot

Page will automatically refresh every two minutes.

Flight plan parsing failed; only flown route is shown


Map Options




Map Legend


Flown Route
Filed Route
Departure Airport
Arrival Airport
Navaid (VOR, NDB)
Fix

Horizontal Profiles

Position Reports

Time Latitude Longitude Heading Altitude Ground
Speed
25-Apr-19 05:10 43.948779 -111.677194 238 4970ft 0kts
25-Apr-19 05:12 43.941599 -111.693381 237 4989ft 120kts
25-Apr-19 05:13 43.916530 -111.731232 226 5675ft 140kts
25-Apr-19 05:14 43.889754 -111.771386 229 6484ft 142kts
25-Apr-19 05:15 43.863472 -111.812600 230 7283ft 142kts
25-Apr-19 05:16 43.837381 -111.853818 231 8050ft 141kts
25-Apr-19 05:17 43.811044 -111.895518 231 8551ft 157kts
25-Apr-19 05:18 43.780098 -111.944449 230 8538ft 175kts
25-Apr-19 05:19 43.747505 -111.995769 230 8535ft 178kts
25-Apr-19 05:20 43.715158 -112.046603 230 8533ft 171kts
25-Apr-19 05:21 43.684223 -112.095168 230 8534ft 166kts
25-Apr-19 05:22 43.653660 -112.143083 230 8535ft 165kts
25-Apr-19 05:23 43.623165 -112.190810 230 8536ft 165kts
25-Apr-19 05:24 43.592728 -112.238364 230 8535ft 165kts
25-Apr-19 05:25 43.562296 -112.285835 230 8535ft 165kts
25-Apr-19 05:26 43.531848 -112.333256 230 8535ft 164kts
25-Apr-19 05:27 43.501361 -112.380654 230 8535ft 164kts
25-Apr-19 05:28 43.470980 -112.427807 230 8534ft 164kts
25-Apr-19 05:29 43.440610 -112.474869 230 8533ft 163kts
25-Apr-19 05:30 43.410337 -112.521709 230 8530ft 162kts
25-Apr-19 05:31 43.380355 -112.568025 230 8527ft 161kts
25-Apr-19 05:31 43.355462 -112.606408 230 8526ft 161kts
25-Apr-19 05:33 43.320619 -112.660038 229 8527ft 160kts
25-Apr-19 05:33 43.295749 -112.698269 229 8527ft 160kts
25-Apr-19 05:34 43.265841 -112.744177 229 8527ft 160kts
25-Apr-19 05:36 43.230952 -112.797640 229 8527ft 160kts
25-Apr-19 05:37 43.201064 -112.843379 229 8527ft 160kts
25-Apr-19 05:37 43.176176 -112.881399 228 8526ft 160kts
25-Apr-19 05:38 43.146371 -112.926860 228 8527ft 160kts
25-Apr-19 05:39 43.116613 -112.972179 227 8526ft 159kts
25-Apr-19 05:40 43.086860 -113.017417 227 8526ft 159kts
25-Apr-19 05:41 43.057032 -113.062678 227 8525ft 160kts
25-Apr-19 05:42 43.027130 -113.107968 228 8524ft 160kts
25-Apr-19 05:43 42.997391 -113.152951 229 8522ft 159kts
25-Apr-19 05:44 42.967520 -113.198080 230 8520ft 160kts
25-Apr-19 05:45 42.937496 -113.243381 230 8519ft 161kts
25-Apr-19 05:46 42.907119 -113.289154 231 8518ft 163kts
25-Apr-19 05:47 42.876502 -113.335209 231 8516ft 165kts
25-Apr-19 05:48 42.845532 -113.381731 231 8516ft 166kts
25-Apr-19 05:49 42.814378 -113.428432 231 8516ft 166kts
25-Apr-19 05:50 42.783144 -113.475175 231 8516ft 166kts
25-Apr-19 05:51 42.752008 -113.521698 231 8516ft 166kts
25-Apr-19 05:52 42.720556 -113.568617 231 8516ft 166kts
25-Apr-19 05:53 42.689377 -113.615053 231 8517ft 166kts
25-Apr-19 05:54 42.658024 -113.661675 231 8518ft 166kts
25-Apr-19 05:55 42.626937 -113.707828 231 8518ft 166kts
25-Apr-19 05:56 42.595621 -113.754245 231 8518ft 166kts
25-Apr-19 05:57 42.564155 -113.800808 231 8517ft 167kts
25-Apr-19 05:58 42.533120 -113.846660 231 8518ft 167kts
25-Apr-19 05:59 42.501659 -113.893068 231 8517ft 167kts
25-Apr-19 06:00 42.470128 -113.939505 231 8518ft 167kts
25-Apr-19 06:01 42.438603 -113.985859 231 8518ft 167kts
25-Apr-19 06:02 42.407142 -114.032039 231 8518ft 166kts
25-Apr-19 06:03 42.375794 -114.077985 231 8517ft 164kts
25-Apr-19 06:04 42.344996 -114.123061 231 8517ft 162kts
25-Apr-19 06:05 42.314431 -114.167731 231 8517ft 159kts
25-Apr-19 06:06 42.284510 -114.211426 230 8517ft 157kts
25-Apr-19 06:07 42.254904 -114.254544 230 8526ft 155kts
25-Apr-19 06:08 42.225329 -114.297564 230 8525ft 155kts
25-Apr-19 06:09 42.195919 -114.340280 230 8525ft 155kts
25-Apr-19 06:10 42.166323 -114.383204 230 8526ft 155kts
25-Apr-19 06:11 42.136747 -114.426036 230 8526ft 155kts
25-Apr-19 06:12 42.107186 -114.468783 230 8525ft 155kts
25-Apr-19 06:13 42.077689 -114.511374 230 8525ft 155kts
25-Apr-19 06:14 42.048147 -114.553968 230 8525ft 155kts
25-Apr-19 06:15 42.023356 -114.600944 279 8197ft 166kts
25-Apr-19 06:16 42.021366 -114.665200 241 7012ft 190kts
25-Apr-19 06:17 41.986579 -114.662315 167 5272ft 105kts
25-Apr-19 06:18 41.973929 -114.658092 178 5195ft 0kts

Navigation Log

Ident Type
Flight plan parsing failed, navigation log unavailable